Weather at Paul Mantz Seaplane Base [CLOSED]

Public forecast

Using degrees Fahrenheit for public forecast. Weather courtesy of forecast.io.

Closest aviation weather report (METAR) to Paul Mantz Seaplane Base

Closest report is Metropolitan Oakland International Airport, 9.3 nm (17.2 km) SE.

2024/05/26 08:53 (retrieved 59 minutes ago)

KOAK 260853Z 23009KT 10SM BKN015 11/09 A3006 RMK AO2 SLP180 T01110089 56005

Closest aviation forecast (TAF) to Paul Mantz Seaplane Base

Closest forecast is Metropolitan Oakland International Airport, 9.3 nm (17.2 km) SE.

2024/05/26 06:36 (retrieved 3 hours ago)

TAF KOAK 260533Z 2606/2712 26010KT P6SM OVC010 FM261700 26009KT P6SM FEW011 FM262000 28014KT P6SM SKC FM270400 27010KT P6SM SCT009 FM271000 23006KT P6SM BKN010